Terminal Aerodrome Forecast
Issued by NWS Wilmington, OH

Current Version | Previous Version | Text Only | Print | Product List | Glossary Off
Versions: 1 2 3 4 5 6 7 8 9 10 11 12 13 14 15 16 17 18 19 20

000
FTUS41 KILN 050500
TAFILN
TAF
KILN 050521Z 0506/0606 00000KT P6SM FEW045 OVC250
     FM050900 00000KT 4SM BR FEW045 OVC250
     FM051300 11004KT P6SM FEW050 OVC250
     FM060100 VRB03KT P6SM FEW060 BKN250=

USA.gov is the U.S. government's official web portal to all federal, state and local government web resources and services.